Almont, North Dakota
Current Conditions -  °F | °C
As of 7:55 PM on Tuesday 21 Oct 2014 (Local Time) from KY19 Reporting Station
Clear Clear  
Wind Chill: 20°   Ceiling: Unl
Heat Index: 20°   Visibility: 10mi
Dew Point:   Wind: 20mph
Humidity: 37%   Direction: 160°SSE
Pressure: 29.68"   Gusts: 25mph
Location:  46.73°N, 101.5°W
Report Text: KY19 220155Z AUTO 16017G22KT 10SM CLR 20/05 A2968 RMK AO2
Loading
Personal Weather Stations






























Interactive Weather Map
Tropical Storm Tracking
New forecast layout! Learn more

10-Day Weather Forecast

Advertisements
Track Severe Weather on mobile